Latest Weather Observations for Redcliffe

IDQ60901

Issued at 8:41 pm EST Friday 6 December 2019 (issued every 10 minutes, with the page automatically refreshed every 10 minutes)

About weather observations | Map of Brisbane area stations | Latest observations for Brisbane area | Other Formats
Station Details ID: 040958 Name: REDCLIFFE Lat: -27.22 Lon: 153.09 Height: 12.6 m
Data from the previous 72 hours. | See also: Recent months at Redcliffe
Date/Time
EST
Temp
°C
App
Temp
°C
Dew
Point
°C
Rel
Hum
%
Delta-T
°C
Wind Press
QNH
hPa
Press
MSL
hPa
Rain since
9am
mm
Dir  Spd
km/h
Gust
km/h
Spd
kts
Gust
kts
06/08:30pm 26.9 26.8 21.4 72 3.7 N 24 32 13 17 1007.2 1007.1 0.0
06/08:00pm 27.1 28.4 21.6 72 3.7 N 17 24 9 13 1007.1 1007.0 0.0
06/07:30pm 27.2 26.6 21.9 73 3.6 N 28 33 15 18 1007.2 1007.1 0.0
06/07:00pm 27.4 26.6 21.7 71 3.8 N 28 39 15 21 1006.6 1006.5 0.0
06/06:30pm 27.7 26.2 22.0 71 3.8 NNE 33 43 18 23 1006.2 1006.1 0.0
06/06:00pm 28.0 25.6 21.8 69 4.2 NNE 37 43 20 23 1005.9 1005.8 0.0
06/05:30pm 28.7 27.0 21.7 66 4.7 NNE 33 39 18 21 1005.8 1005.7 0.0
06/05:00pm 29.3 27.4 21.3 62 5.4 NNE 33 39 18 21 1005.6 1005.5 0.0
06/04:30pm 29.7 27.5 20.3 57 6.2 NNE 32 37 17 20 1005.2 1005.1 0.0
06/04:00pm 30.1 27.5 19.8 54 6.8 NNE 33 37 18 20 1005.3 1005.2 0.0
06/03:30pm 30.8 29.1 19.8 52 7.2 NE 28 32 15 17 1005.3 1005.2 0.0
06/03:00pm 31.6 27.8 16.7 40 9.4 NE 32 37 17 20 1005.6 1005.5 0.0
06/02:30pm 31.8 27.6 15.7 37 10.0 NE 32 37 17 20 1005.8 1005.7 0.0
06/02:00pm 32.1 27.7 15.6 37 10.3 NE 33 37 18 20 1006.4 1006.3 0.0
06/01:30pm 32.4 27.1 9.9 25 12.8 NE 28 32 15 17 1006.9 1006.8 0.0
06/01:00pm 32.5 27.5 11.1 27 12.5 NE 28 33 15 18 1007.4 1007.3 0.0
06/12:30pm 31.9 28.3 14.1 34 10.8 NE 26 32 14 17 1007.8 1007.7 0.0
06/12:00pm 32.0 28.4 14.2 34 10.9 ENE 26 28 14 15 1008.1 1008.0 0.0
06/11:30am 31.0 28.4 15.8 40 9.4 ENE 24 28 13 15 1008.6 1008.5 0.0
06/11:00am 31.3 29.7 14.9 37 10.1 ENE 17 20 9 11 1009.2 1009.1 0.0
06/10:30am 31.3 30.4 14.9 37 10.1 ENE 13 15 7 8 1009.7 1009.6 0.0
06/10:00am 30.3 29.4 14.8 39 9.5 ENE 13 15 7 8 1010.1 1010.0 0.0
06/09:30am 29.8 27.6 10.9 31 10.8 NE 13 15 7 8 1010.4 1010.3 0.0
06/09:00am 28.5 26.4 11.1 34 10.0 NE 13 13 7 7 1010.4 1010.3 0.0
06/08:30am 27.3 24.6 7.2 28 10.7 NE 11 13 6 7 1010.6 1010.5 0.0
06/08:00am 27.3 25.4 9.2 32 10.0 NE 9 11 5 6 1010.6 1010.5 0.0
06/07:30am 26.4 24.8 8.8 33 9.6 ESE 7 9 4 5 1010.7 1010.6 0.0
06/07:00am 24.4 22.7 8.4 36 8.6 WNW 7 9 4 5 1010.7 1010.6 0.0
06/06:30am 22.8 20.7 9.9 44 7.0 WNW 11 15 6 8 1010.6 1010.5 0.0
06/06:00am 20.6 18.8 11.0 54 5.3 W 11 15 6 8 1010.4 1010.3 0.0
06/05:30am 18.4 16.3 9.7 57 4.6 WNW 11 15 6 8 1010.1 1010.0 0.0
06/05:00am 17.4 15.8 10.3 63 3.8 WNW 9 13 5 7 1010.0 1009.9 0.0
06/04:30am 17.8 16.2 11.6 67 3.4 WSW 11 13 6 7 1009.7 1009.6 0.0
06/04:00am 18.5 17.9 12.3 67 3.4 W 7 11 4 6 1009.4 1009.3 0.0
06/03:30am 18.5 18.1 13.1 71 3.0 W 7 9 4 5 1009.3 1009.2 0.0
06/03:00am 18.9 18.5 12.9 68 3.4 W 7 11 4 6 1009.0 1008.9 0.0
06/02:30am 19.4 19.0 13.1 67 3.6 W 7 9 4 5 1009.0 1008.9 0.0
06/02:00am 19.5 19.3 13.7 69 3.3 W 7 9 4 5 1009.0 1008.9 0.0
06/01:30am 20.0 19.3 14.4 70 3.3 WNW 11 13 6 7 1009.1 1009.0 0.0
06/01:00am 20.2 20.5 14.6 70 3.3 W 6 7 3 4 1009.2 1009.1 0.0
06/12:30am 21.0 21.1 15.5 71 3.3 WNW 9 11 5 6 1009.4 1009.3 0.0
06/12:00am 22.2 22.5 16.9 72 3.2 NNW 11 13 6 7 1009.5 1009.4 0.0
 
Date/Time
EST
Temp
°C
App
Temp
°C
Dew
Point
°C
Rel
Hum
%
Delta-T
°C
Wind Press
QNH
hPa
Press
MSL
hPa
Rain since
9am
mm
Dir  Spd
km/h
Gust
km/h
Spd
kts
Gust
kts
05/11:30pm 22.8 22.5 16.4 67 3.9 N 13 19 7 10 1009.8 1009.7 0.0
05/11:00pm 24.8 25.2 20.9 79 2.6 NNE 20 24 11 13 1009.8 1009.7 0.0
05/10:30pm 25.0 25.3 20.3 75 3.1 NE 19 24 10 13 1009.9 1009.8 0.0
05/10:00pm 25.1 24.4 19.5 71 3.6 NNE 22 26 12 14 1009.9 1009.8 0.0
05/09:30pm 25.6 24.7 18.3 64 4.6 NNE 20 28 11 15 1009.9 1009.8 0.0
05/09:00pm 26.0 25.5 16.8 57 5.7 NNE 15 20 8 11 1010.0 1009.9 0.0
05/08:30pm 25.9 23.8 16.2 55 6.0 NNE 22 26 12 14 1009.9 1009.8 0.0
05/08:00pm 26.3 23.9 13.8 46 7.4 NNE 19 24 10 13 1009.9 1009.8 0.0
05/07:30pm 26.5 25.3 13.9 45 7.5 N 13 19 7 10 1009.8 1009.7 0.0
05/07:00pm 26.8 24.1 14.5 46 7.4 NE 22 26 12 14 1009.5 1009.4 0.0
05/06:30pm 27.1 22.8 14.5 46 7.6 NNE 30 35 16 19 1009.1 1009.0 0.0
05/06:00pm 28.1 23.5 11.2 35 9.7 NE 26 32 14 17 1008.8 1008.7 0.0
05/05:30pm 28.6 24.5 11.6 34 9.8 NNE 24 30 13 16 1008.0 1007.9 0.0
05/05:00pm 29.2 24.8 13.0 37 9.6 NNE 28 33 15 18 1007.6 1007.5 0.0
05/04:30pm 29.5 23.9 11.5 33 10.4 NNE 32 37 17 20 1007.5 1007.4 0.0
05/04:00pm 30.7 23.8 6.6 22 13.0 NE 32 37 17 20 1007.3 1007.2 0.0
05/03:30pm 31.1 24.2 4.8 19 13.7 NE 30 33 16 18 1007.4 1007.3 0.0
05/03:00pm 31.2 23.5 2.4 16 14.5 NE 32 37 17 20 1007.7 1007.6 0.0
05/02:30pm 31.4 24.5 6.5 21 13.4 NE 32 39 17 21 1008.0 1007.9 0.0
05/02:00pm 31.9 24.3 3.0 16 14.7 NE 32 33 17 18 1008.3 1008.2 0.0
05/01:30pm 31.8 25.4 5.3 19 14.0 NE 28 33 15 18 1008.7 1008.6 0.0
05/01:00pm 32.2 26.2 7.1 21 13.7 NE 28 33 15 18 1009.1 1009.0 0.0
05/12:30pm 31.7 26.9 4.5 18 14.2 ENE 19 24 10 13 1009.5 1009.4 0.0
05/12:00pm 31.2 26.5 7.6 23 12.9 NE 22 28 12 15 1009.9 1009.8 0.0
05/11:30am 31.6 26.5 0.9 14 15.1 ENE 17 19 9 10 1010.1 1010.0 0.0
05/11:00am 31.9 27.3 3.8 17 14.5 NE 17 19 9 10 1010.8 1010.7 0.0
05/10:30am 30.6 26.6 8.3 25 12.3 NE 19 20 10 11 1011.3 1011.2 0.0
05/10:00am 29.5 27.0 9.6 29 11.2 ENE 13 15 7 8 1011.6 1011.5 0.0
05/09:30am 29.1 27.3 12.1 35 9.9 NE 13 13 7 7 1011.8 1011.7 0.0
05/09:00am 26.6 25.3 12.6 42 8.1 NE 11 13 6 7 1012.2 1012.1 0.0
05/08:30am 26.2 25.1 13.0 44 7.7 NE 11 13 6 7 1012.2 1012.1 0.0
05/08:00am 26.9 25.4 9.3 33 9.7 NE 7 9 4 5 1012.2 1012.1 0.0
05/07:30am 26.2 24.8 10.8 38 8.7 S 9 9 5 5 1012.3 1012.2 0.0
05/07:00am 23.3 22.8 12.0 49 6.4 SW 6 9 3 5 1012.2 1012.1 0.0
05/06:30am 21.3 19.8 13.0 59 4.7 WSW 13 17 7 9 1011.9 1011.8 0.0
05/06:00am 19.5 18.7 14.1 71 3.1 WSW 11 13 6 7 1011.8 1011.7 0.0
05/05:30am 17.9 17.5 14.0 78 2.2 SW 9 11 5 6 1011.6 1011.5 0.0
05/05:00am 17.3 17.7 13.8 80 2.0 WNW 4 7 2 4 1011.4 1011.3 0.0
05/04:30am 17.5 17.6 14.0 80 2.0 WNW 6 7 3 4 1011.3 1011.2 0.0
05/04:00am 17.7 17.8 13.8 78 2.2 W 6 11 3 6 1010.9 1010.8 0.0
05/03:30am 17.9 17.0 13.6 76 2.4 WSW 11 13 6 7 1010.7 1010.6 0.0
05/03:00am 18.4 19.2 13.7 74 2.7 W 2 7 1 4 1010.5 1010.4 0.0
05/02:30am 18.7 18.3 14.2 75 2.6 WSW 9 13 5 7 1010.4 1010.3 0.0
05/02:00am 19.0 18.9 14.9 77 2.4 W 9 11 5 6 1010.5 1010.4 0.0
05/01:30am 19.8 19.8 15.2 75 2.7 NW 9 13 5 7 1010.5 1010.4 0.0
05/01:00am 20.7 21.9 14.8 69 3.5 WSW 2 6 1 3 1010.7 1010.6 0.0
05/12:30am 21.0 21.3 14.9 68 3.6 NW 7 11 4 6 1011.0 1010.9 0.0
05/12:00am 22.4 21.5 14.8 62 4.5 N 13 19 7 10 1011.1 1011.0 0.0
 
Date/Time
EST
Temp
°C
App
Temp
°C
Dew
Point
°C
Rel
Hum
%
Delta-T
°C
Wind Press
QNH
hPa
Press
MSL
hPa
Rain since
9am
mm
Dir  Spd
km/h
Gust
km/h
Spd
kts
Gust
kts
04/11:30pm 23.7 23.0 15.5 60 4.9 N 13 17 7 9 1011.3 1011.2 0.0
04/11:00pm 23.6 23.0 15.6 61 4.8 N 13 17 7 9 1011.5 1011.4 0.0
04/10:30pm 23.8 23.3 15.8 61 4.8 N 13 20 7 11 1011.7 1011.6 0.0
04/10:00pm 23.9 23.8 16.9 65 4.3 NNW 13 17 7 9 1011.9 1011.8 0.0
04/09:30pm 24.1 23.9 17.6 67 4.1 N 15 19 8 10 1012.0 1011.9 0.0
04/09:00pm 24.5 23.8 16.5 61 4.9 N 15 20 8 11 1011.8 1011.7 0.0
04/08:30pm 24.9 23.1 16.1 58 5.4 NNE 20 26 11 14 1011.5 1011.4 0.0
04/08:00pm 25.0 22.4 15.0 53 6.0 NNE 22 26 12 14 1011.4 1011.3 0.0
04/07:30pm 25.1 22.0 14.6 52 6.3 NNE 24 30 13 16 1011.3 1011.2 0.0
04/07:00pm 25.3 21.8 14.4 50 6.5 NE 26 30 14 16 1010.9 1010.8 0.0
04/06:30pm 25.5 21.4 13.7 48 6.9 NE 28 30 15 16 1010.6 1010.5 0.0
04/06:00pm 26.1 22.3 12.5 42 7.9 NE 24 30 13 16 1010.0 1009.9 0.0
04/05:30pm 26.8 22.9 12.1 40 8.5 NE 24 28 13 15 1009.5 1009.4 0.0
04/05:00pm 26.9 23.3 12.9 42 8.2 E 24 28 13 15 1009.1 1009.0 0.0
04/04:30pm 27.4 23.1 10.6 35 9.5 E 24 28 13 15 1008.9 1008.8 0.0
04/04:00pm 27.6 23.1 9.9 33 9.9 E 24 28 13 15 1008.8 1008.7 0.0
04/03:30pm 28.2 23.4 9.0 30 10.6 E 24 28 13 15 1008.9 1008.8 0.0
04/03:00pm 28.2 22.9 8.5 29 10.8 E 26 30 14 16 1009.0 1008.9 0.0
04/02:30pm 28.7 22.6 8.4 28 11.1 E 30 33 16 18 1009.2 1009.1 0.0
04/02:00pm 29.4 23.0 8.5 27 11.5 E 32 35 17 19 1009.3 1009.2 0.0
04/01:30pm 29.3 22.9 8.4 27 11.5 E 32 35 17 19 1009.2 1009.1 0.0
04/01:00pm 29.8 24.3 7.7 25 12.0 E 26 30 14 16 1009.7 1009.6 0.0
04/12:30pm 29.3 23.2 2.5 18 13.3 E 24 28 13 15 1009.8 1009.7 0.0
04/12:00pm 29.6 23.9 2.8 18 13.4 ENE 22 28 12 15 1010.2 1010.1 0.0
04/11:30am 29.0 23.3 5.1 22 12.4 ENE 24 28 13 15 1010.5 1010.4 0.0
04/11:00am 30.2 25.3 4.0 19 13.4 ENE 19 22 10 12 1011.0 1010.9 0.0
04/10:30am 29.3 25.4 3.3 19 13.1 E 13 17 7 9 1011.2 1011.1 0.0
04/10:00am 30.6 26.8 1.9 16 14.2 SE 11 13 6 7 1011.5 1011.4 0.0
04/09:30am 29.8 25.3 -0.5 14 14.3 SE 13 15 7 8 1011.8 1011.7 0.0
04/09:00am 29.5 25.3 1.9 17 13.6 S 13 15 7 8 1011.9 1011.8 0.0
04/08:30am 29.4 25.1 3.4 19 13.1 S 15 19 8 10 1012.0 1011.9 0.0
04/08:00am 28.3 24.9 3.9 21 12.3 S 11 15 6 8 1011.9 1011.8 0.0
04/07:30am 25.9 24.1 7.0 30 9.9 SE 6 9 3 5 1011.6 1011.5 0.0
04/07:00am 24.6 22.6 8.5 36 8.6 NE 9 11 5 6 1011.5 1011.4 0.0
04/06:30am 23.9 21.7 6.2 32 9.1 WNW 7 13 4 7 1011.2 1011.1 0.0
04/06:00am 22.3 19.7 6.1 35 8.2 W 9 11 5 6 1010.9 1010.8 0.0
04/05:30am 20.9 19.8 6.8 40 7.2 WNW 2 6 1 3 1010.5 1010.4 0.0
04/05:00am 19.7 17.8 7.4 45 6.3 N 7 9 4 5 1010.2 1010.1 0.0
04/04:30am 20.8 17.6 5.2 36 7.7 WSW 11 13 6 7 1009.7 1009.6 0.0
04/04:00am 21.1 17.6 5.5 36 7.8 W 13 15 7 8 1009.3 1009.2 0.0
04/03:30am 19.3 16.8 8.0 48 5.8 W 11 13 6 7 1009.2 1009.1 0.0
04/03:00am 19.8 18.6 9.7 52 5.4 W 6 9 3 5 1009.0 1008.9 0.0
04/02:30am 20.7 18.5 7.7 43 6.7 WNW 9 9 5 5 1008.8 1008.7 0.0
04/02:00am 20.4 19.1 11.3 56 5.0 WNW 9 9 5 5 1009.0 1008.9 0.0
04/01:30am 21.3 19.8 10.5 50 5.9 WNW 9 11 5 6 1009.1 1009.0 0.0
04/01:00am 21.4 20.0 12.3 56 5.1 WNW 11 13 6 7 1009.3 1009.2 0.0
04/12:30am 21.0 20.2 15.1 69 3.5 WNW 13 15 7 8 1009.5 1009.4 0.0
04/12:00am 21.3 21.0 15.4 69 3.5 WNW 11 13 6 7 1009.8 1009.7 0.0
 
Date/Time
EST
Temp
°C
App
Temp
°C
Dew
Point
°C
Rel
Hum
%
Delta-T
°C
Wind Press
QNH
hPa
Press
MSL
hPa
Rain since
9am
mm
Dir  Spd
km/h
Gust
km/h
Spd
kts
Gust
kts
03/11:30pm 22.1 22.0 15.9 68 3.7 WNW 11 15 6 8 1009.9 1009.8 0.0
03/11:00pm 23.3 23.5 16.8 67 4.0 NW 11 15 6 8 1010.0 1009.9 0.0
03/10:30pm 24.1 24.4 17.1 65 4.3 NNW 11 15 6 8 1010.1 1010.0 0.0
03/10:00pm 24.7 24.2 16.9 62 4.8 N 15 20 8 11 1010.1 1010.0 0.0
03/09:30pm 24.9 23.3 16.6 60 5.1 N 20 28 11 15 1010.0 1009.9 0.0
03/09:00pm 24.7 24.4 17.4 64 4.5 N 15 24 8 13 1009.7 1009.6 0.0

Latest Capital City Observations: Canberra | Sydney | Melbourne | Brisbane | Adelaide | Perth | Hobart | Darwin

Other formats

Comma delimited format used in spreadsheet applications
http://www.bom.gov.au/fwo/IDQ60901/IDQ60901.95591.axf

JavaScript Object Notation format (JSON) in row-major order
http://www.bom.gov.au/fwo/IDQ60901/IDQ60901.95591.json

Data quality

Most of these data are generated automatically and are frequently updated. Quality checks on data are not normally performed. It is possible for incorrect values to appear. Refer to information at About Latest Weather Observations and please check the disclaimer before using these data.